sensor_id;sensor_type;location;lat;lon;timestamp;P1;durP1;ratioP1;P2;durP2;ratioP2
9306;SDS011;4691;47.612;7.610;2023-03-02T00:01:32;81.72;;;37.35;;
9306;SDS011;4691;47.612;7.610;2023-03-02T00:04:11;76.07;;;36.13;;
9306;SDS011;4691;47.612;7.610;2023-03-02T00:06:41;82.57;;;37.35;;
9306;SDS011;4691;47.612;7.610;2023-03-02T00:09:07;76.15;;;34.70;;
9306;SDS011;4691;47.612;7.610;2023-03-02T00:11:33;73.65;;;34.08;;
9306;SDS011;4691;47.612;7.610;2023-03-02T00:14:01;121.33;;;56.50;;
9306;SDS011;4691;47.612;7.610;2023-03-02T00:16:27;151.48;;;68.20;;
9306;SDS011;4691;47.612;7.610;2023-03-02T00:18:52;96.28;;;45.38;;
9306;SDS011;4691;47.612;7.610;2023-03-02T00:21:21;87.38;;;40.58;;
9306;SDS011;4691;47.612;7.610;2023-03-02T00:23:48;85.97;;;39.75;;
9306;SDS011;4691;47.612;7.610;2023-03-02T00:26:14;82.88;;;37.53;;
9306;SDS011;4691;47.612;7.610;2023-03-02T00:28:39;85.55;;;39.60;;
9306;SDS011;4691;47.612;7.610;2023-03-02T00:31:05;88.07;;;39.08;;
9306;SDS011;4691;47.612;7.610;2023-03-02T00:33:31;80.15;;;38.47;;
9306;SDS011;4691;47.612;7.610;2023-03-02T00:35:57;78.35;;;35.85;;
9306;SDS011;4691;47.612;7.610;2023-03-02T00:38:23;84.47;;;39.20;;
9306;SDS011;4691;47.612;7.610;2023-03-02T00:40:54;79.47;;;37.00;;
9306;SDS011;4691;47.612;7.610;2023-03-02T00:43:20;82.05;;;36.15;;
9306;SDS011;4691;47.612;7.610;2023-03-02T00:45:51;81.07;;;38.92;;
9306;SDS011;4691;47.612;7.610;2023-03-02T00:48:17;81.90;;;38.55;;
9306;SDS011;4691;47.612;7.610;2023-03-02T00:50:43;88.85;;;40.10;;
9306;SDS011;4691;47.612;7.610;2023-03-02T00:53:09;77.22;;;36.72;;
9306;SDS011;4691;47.612;7.610;2023-03-02T00:55:35;77.40;;;36.22;;
9306;SDS011;4691;47.612;7.610;2023-03-02T00:58:02;80.10;;;36.25;;
9306;SDS011;4691;47.612;7.610;2023-03-02T01:00:29;76.82;;;36.75;;
9306;SDS011;4691;47.612;7.610;2023-03-02T01:02:56;79.07;;;38.60;;
9306;SDS011;4691;47.612;7.610;2023-03-02T01:05:21;78.57;;;37.78;;
9306;SDS011;4691;47.612;7.610;2023-03-02T01:07:47;78.10;;;37.70;;
9306;SDS011;4691;47.612;7.610;2023-03-02T01:10:13;76.93;;;35.25;;
9306;SDS011;4691;47.612;7.610;2023-03-02T01:12:39;71.47;;;33.75;;
9306;SDS011;4691;47.612;7.610;2023-03-02T01:15:05;72.28;;;35.35;;
9306;SDS011;4691;47.612;7.610;2023-03-02T01:17:32;75.38;;;35.70;;
9306;SDS011;4691;47.612;7.610;2023-03-02T01:19:57;79.70;;;36.95;;
9306;SDS011;4691;47.612;7.610;2023-03-02T01:22:26;81.28;;;37.33;;
9306;SDS011;4691;47.612;7.610;2023-03-02T01:24:51;76.18;;;36.85;;
9306;SDS011;4691;47.612;7.610;2023-03-02T01:27:17;74.70;;;36.10;;
9306;SDS011;4691;47.612;7.610;2023-03-02T01:29:43;81.38;;;37.25;;
9306;SDS011;4691;47.612;7.610;2023-03-02T01:32:09;87.30;;;41.85;;
9306;SDS011;4691;47.612;7.610;2023-03-02T01:34:35;80.97;;;37.13;;
9306;SDS011;4691;47.612;7.610;2023-03-02T01:37:00;79.60;;;36.85;;
9306;SDS011;4691;47.612;7.610;2023-03-02T01:39:29;83.57;;;38.17;;
9306;SDS011;4691;47.612;7.610;2023-03-02T01:41:54;81.50;;;37.13;;
9306;SDS011;4691;47.612;7.610;2023-03-02T01:47:11;74.25;;;34.70;;
9306;SDS011;4691;47.612;7.610;2023-03-02T01:49:41;78.03;;;37.35;;
9306;SDS011;4691;47.612;7.610;2023-03-02T01:52:11;75.22;;;34.95;;
9306;SDS011;4691;47.612;7.610;2023-03-02T01:54:39;73.20;;;35.25;;
9306;SDS011;4691;47.612;7.610;2023-03-02T01:57:06;77.90;;;35.50;;
9306;SDS011;4691;47.612;7.610;2023-03-02T01:59:34;76.90;;;34.78;;
9306;SDS011;4691;47.612;7.610;2023-03-02T02:02:04;82.20;;;36.42;;
9306;SDS011;4691;47.612;7.610;2023-03-02T02:07:00;66.32;;;31.73;;
9306;SDS011;4691;47.612;7.610;2023-03-02T02:09:28;73.18;;;35.13;;
9306;SDS011;4691;47.612;7.610;2023-03-02T02:11:56;79.30;;;35.75;;
9306;SDS011;4691;47.612;7.610;2023-03-02T02:14:21;78.50;;;35.70;;
9306;SDS011;4691;47.612;7.610;2023-03-02T02:16:47;71.55;;;35.90;;
9306;SDS011;4691;47.612;7.610;2023-03-02T02:19:22;75.93;;;36.22;;
9306;SDS011;4691;47.612;7.610;2023-03-02T02:22:01;75.93;;;35.95;;
9306;SDS011;4691;47.612;7.610;2023-03-02T02:24:38;79.93;;;34.70;;
9306;SDS011;4691;47.612;7.610;2023-03-02T02:27:10;68.38;;;33.78;;
9306;SDS011;4691;47.612;7.610;2023-03-02T02:29:41;71.72;;;34.53;;
9306;SDS011;4691;47.612;7.610;2023-03-02T02:37:38;86.32;;;38.28;;
9306;SDS011;4691;47.612;7.610;2023-03-02T02:42:39;74.03;;;35.20;;
9306;SDS011;4691;47.612;7.610;2023-03-02T02:45:16;68.90;;;32.88;;
9306;SDS011;4691;47.612;7.610;2023-03-02T02:47:44;72.72;;;33.33;;
9306;SDS011;4691;47.612;7.610;2023-03-02T02:50:22;74.40;;;34.17;;
9306;SDS011;4691;47.612;7.610;2023-03-02T02:52:54;73.75;;;33.90;;
9306;SDS011;4691;47.612;7.610;2023-03-02T02:55:40;69.47;;;32.92;;
9306;SDS011;4691;47.612;7.610;2023-03-02T03:01:04;69.43;;;33.22;;
9306;SDS011;4691;47.612;7.610;2023-03-02T03:03:37;69.60;;;32.83;;
9306;SDS011;4691;47.612;7.610;2023-03-02T03:06:04;82.63;;;36.85;;
9306;SDS011;4691;47.612;7.610;2023-03-02T03:08:47;74.22;;;36.45;;
9306;SDS011;4691;47.612;7.610;2023-03-02T03:11:17;84.40;;;36.03;;
9306;SDS011;4691;47.612;7.610;2023-03-02T03:13:47;75.85;;;35.15;;
9306;SDS011;4691;47.612;7.610;2023-03-02T03:19:31;85.28;;;39.90;;
9306;SDS011;4691;47.612;7.610;2023-03-02T03:21:58;83.65;;;40.70;;
9306;SDS011;4691;47.612;7.610;2023-03-02T03:24:26;91.40;;;41.22;;
9306;SDS011;4691;47.612;7.610;2023-03-02T03:26:54;88.03;;;41.38;;
9306;SDS011;4691;47.612;7.610;2023-03-02T03:29:21;89.15;;;41.80;;
9306;SDS011;4691;47.612;7.610;2023-03-02T03:31:48;91.55;;;39.80;;
9306;SDS011;4691;47.612;7.610;2023-03-02T03:34:14;93.82;;;43.30;;
9306;SDS011;4691;47.612;7.610;2023-03-02T03:36:40;99.00;;;45.95;;
9306;SDS011;4691;47.612;7.610;2023-03-02T03:39:07;106.03;;;45.50;;
9306;SDS011;4691;47.612;7.610;2023-03-02T03:41:32;100.03;;;44.45;;
9306;SDS011;4691;47.612;7.610;2023-03-02T03:43:58;112.80;;;46.78;;
9306;SDS011;4691;47.612;7.610;2023-03-02T03:46:23;105.13;;;47.90;;
9306;SDS011;4691;47.612;7.610;2023-03-02T03:48:48;103.57;;;45.55;;
9306;SDS011;4691;47.612;7.610;2023-03-02T03:51:14;108.30;;;48.70;;
9306;SDS011;4691;47.612;7.610;2023-03-02T03:53:39;98.15;;;45.50;;
9306;SDS011;4691;47.612;7.610;2023-03-02T03:56:05;102.07;;;45.92;;
9306;SDS011;4691;47.612;7.610;2023-03-02T03:58:30;108.50;;;47.00;;
9306;SDS011;4691;47.612;7.610;2023-03-02T04:00:56;108.55;;;47.83;;
9306;SDS011;4691;47.612;7.610;2023-03-02T04:03:22;107.80;;;46.22;;
9306;SDS011;4691;47.612;7.610;2023-03-02T04:05:49;91.65;;;43.72;;
9306;SDS011;4691;47.612;7.610;2023-03-02T04:08:15;100.15;;;45.05;;
9306;SDS011;4691;47.612;7.610;2023-03-02T04:10:41;95.82;;;42.45;;
9306;SDS011;4691;47.612;7.610;2023-03-02T04:13:06;98.35;;;42.80;;
9306;SDS011;4691;47.612;7.610;2023-03-02T04:15:32;95.75;;;41.22;;
9306;SDS011;4691;47.612;7.610;2023-03-02T04:17:57;91.97;;;39.95;;
9306;SDS011;4691;47.612;7.610;2023-03-02T04:20:23;96.95;;;40.95;;
9306;SDS011;4691;47.612;7.610;2023-03-02T04:22:51;89.05;;;40.08;;
9306;SDS011;4691;47.612;7.610;2023-03-02T04:25:18;93.50;;;41.30;;
9306;SDS011;4691;47.612;7.610;2023-03-02T04:27:46;95.63;;;41.45;;
9306;SDS011;4691;47.612;7.610;2023-03-02T04:30:13;94.72;;;43.00;;
9306;SDS011;4691;47.612;7.610;2023-03-02T04:32:39;100.03;;;44.28;;
9306;SDS011;4691;47.612;7.610;2023-03-02T04:35:04;91.75;;;38.22;;
9306;SDS011;4691;47.612;7.610;2023-03-02T04:37:30;90.80;;;41.38;;
9306;SDS011;4691;47.612;7.610;2023-03-02T04:39:55;96.15;;;42.00;;
9306;SDS011;4691;47.612;7.610;2023-03-02T04:42:21;102.50;;;44.97;;
9306;SDS011;4691;47.612;7.610;2023-03-02T04:44:46;90.05;;;41.38;;
9306;SDS011;4691;47.612;7.610;2023-03-02T04:47:12;89.75;;;38.95;;
9306;SDS011;4691;47.612;7.610;2023-03-02T04:49:37;87.00;;;39.97;;
9306;SDS011;4691;47.612;7.610;2023-03-02T04:52:03;86.22;;;37.10;;
9306;SDS011;4691;47.612;7.610;2023-03-02T04:54:29;81.20;;;37.17;;
9306;SDS011;4691;47.612;7.610;2023-03-02T04:56:55;74.35;;;34.63;;
9306;SDS011;4691;47.612;7.610;2023-03-02T04:59:21;82.30;;;34.03;;
9306;SDS011;4691;47.612;7.610;2023-03-02T05:01:50;88.60;;;37.53;;
9306;SDS011;4691;47.612;7.610;2023-03-02T05:04:16;79.85;;;34.13;;
9306;SDS011;4691;47.612;7.610;2023-03-02T05:06:41;74.20;;;33.83;;
9306;SDS011;4691;47.612;7.610;2023-03-02T05:09:07;82.82;;;36.45;;
9306;SDS011;4691;47.612;7.610;2023-03-02T05:11:32;79.03;;;35.83;;
9306;SDS011;4691;47.612;7.610;2023-03-02T05:13:59;77.95;;;34.70;;
9306;SDS011;4691;47.612;7.610;2023-03-02T05:16:27;75.97;;;35.15;;
9306;SDS011;4691;47.612;7.610;2023-03-02T05:18:54;87.47;;;35.58;;
9306;SDS011;4691;47.612;7.610;2023-03-02T05:21:20;79.70;;;34.83;;
9306;SDS011;4691;47.612;7.610;2023-03-02T05:23:45;86.18;;;35.05;;
9306;SDS011;4691;47.612;7.610;2023-03-02T05:26:11;79.30;;;35.03;;
9306;SDS011;4691;47.612;7.610;2023-03-02T05:28:39;77.90;;;33.47;;
9306;SDS011;4691;47.612;7.610;2023-03-02T05:33:33;81.05;;;33.40;;
9306;SDS011;4691;47.612;7.610;2023-03-02T05:35:58;88.43;;;38.05;;
9306;SDS011;4691;47.612;7.610;2023-03-02T05:38:25;90.35;;;38.80;;
9306;SDS011;4691;47.612;7.610;2023-03-02T05:40:51;80.43;;;34.95;;
9306;SDS011;4691;47.612;7.610;2023-03-02T05:43:18;78.05;;;35.88;;
9306;SDS011;4691;47.612;7.610;2023-03-02T05:45:45;80.93;;;36.38;;
9306;SDS011;4691;47.612;7.610;2023-03-02T05:48:13;80.35;;;34.53;;
9306;SDS011;4691;47.612;7.610;2023-03-02T05:50:39;85.47;;;36.60;;
9306;SDS011;4691;47.612;7.610;2023-03-02T05:53:05;80.38;;;34.70;;
9306;SDS011;4691;47.612;7.610;2023-03-02T05:55:31;82.72;;;35.63;;
9306;SDS011;4691;47.612;7.610;2023-03-02T05:58:01;73.20;;;33.50;;
9306;SDS011;4691;47.612;7.610;2023-03-02T06:00:31;80.07;;;35.55;;
9306;SDS011;4691;47.612;7.610;2023-03-02T06:02:56;79.50;;;35.10;;
9306;SDS011;4691;47.612;7.610;2023-03-02T06:05:21;77.10;;;33.97;;
9306;SDS011;4691;47.612;7.610;2023-03-02T06:07:48;78.55;;;33.72;;
9306;SDS011;4691;47.612;7.610;2023-03-02T06:10:14;75.65;;;34.97;;
9306;SDS011;4691;47.612;7.610;2023-03-02T06:12:43;85.15;;;36.03;;
9306;SDS011;4691;47.612;7.610;2023-03-02T06:15:08;82.65;;;35.33;;
9306;SDS011;4691;47.612;7.610;2023-03-02T06:17:34;78.78;;;35.15;;
9306;SDS011;4691;47.612;7.610;2023-03-02T06:20:00;74.88;;;33.70;;
9306;SDS011;4691;47.612;7.610;2023-03-02T06:22:25;82.57;;;36.85;;
9306;SDS011;4691;47.612;7.610;2023-03-02T06:24:51;69.22;;;31.85;;
9306;SDS011;4691;47.612;7.610;2023-03-02T06:27:19;75.88;;;33.60;;
9306;SDS011;4691;47.612;7.610;2023-03-02T06:29:44;83.05;;;33.45;;
9306;SDS011;4691;47.612;7.610;2023-03-02T06:32:10;80.10;;;36.17;;
9306;SDS011;4691;47.612;7.610;2023-03-02T06:34:35;80.13;;;33.28;;
9306;SDS011;4691;47.612;7.610;2023-03-02T06:37:01;82.70;;;33.90;;
9306;SDS011;4691;47.612;7.610;2023-03-02T06:39:26;74.65;;;33.55;;
9306;SDS011;4691;47.612;7.610;2023-03-02T06:41:51;80.32;;;35.08;;
9306;SDS011;4691;47.612;7.610;2023-03-02T06:44:17;88.72;;;36.20;;
9306;SDS011;4691;47.612;7.610;2023-03-02T06:46:42;83.45;;;35.70;;
9306;SDS011;4691;47.612;7.610;2023-03-02T06:49:09;79.75;;;34.65;;
9306;SDS011;4691;47.612;7.610;2023-03-02T06:51:35;76.50;;;33.95;;
9306;SDS011;4691;47.612;7.610;2023-03-02T06:54:01;75.80;;;33.33;;
9306;SDS011;4691;47.612;7.610;2023-03-02T06:56:26;83.65;;;37.28;;
9306;SDS011;4691;47.612;7.610;2023-03-02T06:58:52;78.35;;;34.10;;
9306;SDS011;4691;47.612;7.610;2023-03-02T07:01:17;85.05;;;35.03;;
9306;SDS011;4691;47.612;7.610;2023-03-02T07:03:43;83.70;;;35.17;;
9306;SDS011;4691;47.612;7.610;2023-03-02T07:06:09;89.25;;;37.05;;
9306;SDS011;4691;47.612;7.610;2023-03-02T07:08:38;82.25;;;35.05;;
9306;SDS011;4691;47.612;7.610;2023-03-02T07:11:08;78.85;;;35.00;;
9306;SDS011;4691;47.612;7.610;2023-03-02T07:13:37;85.63;;;36.38;;
9306;SDS011;4691;47.612;7.610;2023-03-02T07:16:10;89.35;;;37.13;;
9306;SDS011;4691;47.612;7.610;2023-03-02T07:18:37;82.10;;;35.58;;
9306;SDS011;4691;47.612;7.610;2023-03-02T07:21:03;78.00;;;35.33;;
9306;SDS011;4691;47.612;7.610;2023-03-02T07:23:29;85.25;;;36.15;;
9306;SDS011;4691;47.612;7.610;2023-03-02T07:25:54;72.32;;;32.45;;
9306;SDS011;4691;47.612;7.610;2023-03-02T07:28:20;73.30;;;34.22;;
9306;SDS011;4691;47.612;7.610;2023-03-02T07:30:48;84.88;;;36.72;;
9306;SDS011;4691;47.612;7.610;2023-03-02T07:33:13;79.22;;;36.33;;
9306;SDS011;4691;47.612;7.610;2023-03-02T07:35:39;85.82;;;38.13;;
9306;SDS011;4691;47.612;7.610;2023-03-02T07:38:04;84.53;;;37.40;;
9306;SDS011;4691;47.612;7.610;2023-03-02T07:40:29;80.90;;;36.30;;
9306;SDS011;4691;47.612;7.610;2023-03-02T07:42:54;83.85;;;35.55;;
9306;SDS011;4691;47.612;7.610;2023-03-02T07:45:20;77.53;;;35.63;;
9306;SDS011;4691;47.612;7.610;2023-03-02T07:47:48;79.30;;;37.13;;
9306;SDS011;4691;47.612;7.610;2023-03-02T07:50:14;84.90;;;37.75;;
9306;SDS011;4691;47.612;7.610;2023-03-02T07:52:39;87.68;;;37.67;;
9306;SDS011;4691;47.612;7.610;2023-03-02T07:55:04;81.28;;;36.03;;
9306;SDS011;4691;47.612;7.610;2023-03-02T07:57:30;76.68;;;35.83;;
9306;SDS011;4691;47.612;7.610;2023-03-02T07:59:55;85.07;;;38.83;;
9306;SDS011;4691;47.612;7.610;2023-03-02T08:02:20;84.38;;;37.47;;
9306;SDS011;4691;47.612;7.610;2023-03-02T08:04:46;84.72;;;39.13;;
9306;SDS011;4691;47.612;7.610;2023-03-02T08:07:11;83.13;;;36.67;;
9306;SDS011;4691;47.612;7.610;2023-03-02T08:09:37;88.15;;;40.15;;
9306;SDS011;4691;47.612;7.610;2023-03-02T08:12:03;83.00;;;37.80;;
9306;SDS011;4691;47.612;7.610;2023-03-02T08:14:29;85.00;;;39.15;;
9306;SDS011;4691;47.612;7.610;2023-03-02T08:16:55;87.90;;;38.80;;
9306;SDS011;4691;47.612;7.610;2023-03-02T08:19:21;84.75;;;37.83;;
9306;SDS011;4691;47.612;7.610;2023-03-02T08:21:46;79.63;;;36.35;;
9306;SDS011;4691;47.612;7.610;2023-03-02T08:24:11;89.07;;;41.00;;
9306;SDS011;4691;47.612;7.610;2023-03-02T08:26:37;77.57;;;36.40;;
9306;SDS011;4691;47.612;7.610;2023-03-02T08:29:03;78.78;;;36.88;;
9306;SDS011;4691;47.612;7.610;2023-03-02T08:31:29;72.80;;;34.55;;
9306;SDS011;4691;47.612;7.610;2023-03-02T08:33:54;78.20;;;35.72;;
9306;SDS011;4691;47.612;7.610;2023-03-02T08:36:20;78.75;;;34.83;;
9306;SDS011;4691;47.612;7.610;2023-03-02T08:38:46;78.85;;;36.40;;
9306;SDS011;4691;47.612;7.610;2023-03-02T08:41:13;83.93;;;38.50;;
9306;SDS011;4691;47.612;7.610;2023-03-02T08:43:43;82.68;;;39.20;;
9306;SDS011;4691;47.612;7.610;2023-03-02T08:46:09;85.97;;;38.13;;
9306;SDS011;4691;47.612;7.610;2023-03-02T08:48:35;82.18;;;37.25;;
9306;SDS011;4691;47.612;7.610;2023-03-02T08:53:28;84.43;;;37.90;;
9306;SDS011;4691;47.612;7.610;2023-03-02T08:56:02;83.20;;;38.70;;
9306;SDS011;4691;47.612;7.610;2023-03-02T08:58:28;77.18;;;35.90;;
9306;SDS011;4691;47.612;7.610;2023-03-02T09:00:54;82.85;;;38.33;;
9306;SDS011;4691;47.612;7.610;2023-03-02T09:03:19;87.55;;;39.45;;
9306;SDS011;4691;47.612;7.610;2023-03-02T09:05:45;80.03;;;36.30;;
9306;SDS011;4691;47.612;7.610;2023-03-02T09:08:11;89.30;;;41.75;;
9306;SDS011;4691;47.612;7.610;2023-03-02T09:10:36;85.55;;;40.20;;
9306;SDS011;4691;47.612;7.610;2023-03-02T09:13:02;85.60;;;39.33;;
9306;SDS011;4691;47.612;7.610;2023-03-02T09:15:28;88.22;;;41.03;;
9306;SDS011;4691;47.612;7.610;2023-03-02T09:17:53;84.57;;;40.08;;
9306;SDS011;4691;47.612;7.610;2023-03-02T09:20:18;93.10;;;39.45;;
9306;SDS011;4691;47.612;7.610;2023-03-02T09:22:44;82.45;;;39.13;;
9306;SDS011;4691;47.612;7.610;2023-03-02T09:25:13;83.28;;;39.78;;
9306;SDS011;4691;47.612;7.610;2023-03-02T09:27:38;78.72;;;36.83;;
9306;SDS011;4691;47.612;7.610;2023-03-02T09:30:04;73.75;;;34.55;;
9306;SDS011;4691;47.612;7.610;2023-03-02T09:32:30;80.78;;;38.33;;
9306;SDS011;4691;47.612;7.610;2023-03-02T09:34:55;79.90;;;39.13;;
9306;SDS011;4691;47.612;7.610;2023-03-02T09:37:21;93.45;;;38.83;;
9306;SDS011;4691;47.612;7.610;2023-03-02T09:39:46;87.53;;;38.60;;
9306;SDS011;4691;47.612;7.610;2023-03-02T09:47:57;86.78;;;39.67;;
9306;SDS011;4691;47.612;7.610;2023-03-02T09:50:49;90.00;;;39.65;;
9306;SDS011;4691;47.612;7.610;2023-03-02T09:56:07;98.65;;;41.60;;
9306;SDS011;4691;47.612;7.610;2023-03-02T09:58:39;93.13;;;41.25;;
9306;SDS011;4691;47.612;7.610;2023-03-02T10:01:11;79.63;;;37.90;;
9306;SDS011;4691;47.612;7.610;2023-03-02T10:03:43;80.60;;;39.08;;
9306;SDS011;4691;47.612;7.610;2023-03-02T10:06:16;82.85;;;38.58;;
9306;SDS011;4691;47.612;7.610;2023-03-02T10:08:41;80.47;;;39.30;;
9306;SDS011;4691;47.612;7.610;2023-03-02T10:14:14;90.60;;;42.40;;
9306;SDS011;4691;47.612;7.610;2023-03-02T10:16:48;80.82;;;38.72;;
9306;SDS011;4691;47.612;7.610;2023-03-02T10:19:38;80.65;;;37.70;;
9306;SDS011;4691;47.612;7.610;2023-03-02T10:22:10;91.60;;;41.85;;
9306;SDS011;4691;47.612;7.610;2023-03-02T10:24:50;88.03;;;41.35;;
9306;SDS011;4691;47.612;7.610;2023-03-02T10:27:41;93.13;;;43.28;;
9306;SDS011;4691;47.612;7.610;2023-03-02T10:30:15;93.47;;;41.97;;
9306;SDS011;4691;47.612;7.610;2023-03-02T10:32:50;84.20;;;38.72;;
9306;SDS011;4691;47.612;7.610;2023-03-02T10:35:20;91.70;;;42.95;;
9306;SDS011;4691;47.612;7.610;2023-03-02T10:37:56;88.35;;;39.92;;
9306;SDS011;4691;47.612;7.610;2023-03-02T10:43:33;80.53;;;39.42;;
9306;SDS011;4691;47.612;7.610;2023-03-02T10:46:04;87.20;;;43.03;;
9306;SDS011;4691;47.612;7.610;2023-03-02T10:48:32;89.15;;;41.85;;
9306;SDS011;4691;47.612;7.610;2023-03-02T10:51:11;86.85;;;40.83;;
9306;SDS011;4691;47.612;7.610;2023-03-02T10:53:45;76.18;;;38.67;;
9306;SDS011;4691;47.612;7.610;2023-03-02T10:56:17;81.53;;;40.15;;
9306;SDS011;4691;47.612;7.610;2023-03-02T10:58:45;89.28;;;43.83;;
9306;SDS011;4691;47.612;7.610;2023-03-02T11:01:16;84.75;;;41.22;;
9306;SDS011;4691;47.612;7.610;2023-03-02T11:03:53;83.93;;;43.67;;
9306;SDS011;4691;47.612;7.610;2023-03-02T11:06:21;92.15;;;44.00;;
9306;SDS011;4691;47.612;7.610;2023-03-02T11:08:57;93.88;;;44.65;;
9306;SDS011;4691;47.612;7.610;2023-03-02T11:11:29;79.00;;;39.30;;
9306;SDS011;4691;47.612;7.610;2023-03-02T11:13:55;86.53;;;41.55;;
9306;SDS011;4691;47.612;7.610;2023-03-02T11:16:31;82.90;;;40.33;;
9306;SDS011;4691;47.612;7.610;2023-03-02T11:18:57;91.82;;;43.53;;
9306;SDS011;4691;47.612;7.610;2023-03-02T11:24:11;87.72;;;43.00;;
9306;SDS011;4691;47.612;7.610;2023-03-02T11:29:38;84.50;;;40.35;;
9306;SDS011;4691;47.612;7.610;2023-03-02T11:35:04;83.63;;;43.08;;
9306;SDS011;4691;47.612;7.610;2023-03-02T11:40:12;80.60;;;41.03;;
9306;SDS011;4691;47.612;7.610;2023-03-02T11:42:41;83.95;;;42.95;;
9306;SDS011;4691;47.612;7.610;2023-03-02T11:47:36;87.22;;;44.58;;
9306;SDS011;4691;47.612;7.610;2023-03-02T11:50:03;86.40;;;42.33;;
9306;SDS011;4691;47.612;7.610;2023-03-02T11:52:31;85.60;;;42.78;;
9306;SDS011;4691;47.612;7.610;2023-03-02T11:57:36;92.38;;;44.03;;
9306;SDS011;4691;47.612;7.610;2023-03-02T12:00:13;91.28;;;45.13;;
9306;SDS011;4691;47.612;7.610;2023-03-02T12:02:56;94.80;;;45.72;;
9306;SDS011;4691;47.612;7.610;2023-03-02T12:05:27;98.18;;;47.58;;
9306;SDS011;4691;47.612;7.610;2023-03-02T12:08:28;88.15;;;43.88;;
9306;SDS011;4691;47.612;7.610;2023-03-02T12:14:01;87.63;;;42.83;;
9306;SDS011;4691;47.612;7.610;2023-03-02T12:16:36;92.28;;;44.60;;
9306;SDS011;4691;47.612;7.610;2023-03-02T12:19:11;94.15;;;46.20;;
9306;SDS011;4691;47.612;7.610;2023-03-02T12:21:40;90.75;;;44.78;;
9306;SDS011;4691;47.612;7.610;2023-03-02T12:30:07;92.22;;;44.70;;
9306;SDS011;4691;47.612;7.610;2023-03-02T12:32:33;81.00;;;41.63;;
9306;SDS011;4691;47.612;7.610;2023-03-02T12:35:00;88.47;;;43.70;;
9306;SDS011;4691;47.612;7.610;2023-03-02T12:37:48;94.45;;;42.40;;
9306;SDS011;4691;47.612;7.610;2023-03-02T12:49:02;92.97;;;45.78;;
9306;SDS011;4691;47.612;7.610;2023-03-02T12:51:50;94.15;;;47.20;;
9306;SDS011;4691;47.612;7.610;2023-03-02T12:54:25;85.65;;;44.13;;
9306;SDS011;4691;47.612;7.610;2023-03-02T12:59:53;93.35;;;45.08;;
9306;SDS011;4691;47.612;7.610;2023-03-02T13:02:24;99.13;;;47.40;;
9306;SDS011;4691;47.612;7.610;2023-03-02T13:10:00;104.38;;;49.70;;
9306;SDS011;4691;47.612;7.610;2023-03-02T13:12:30;91.32;;;45.08;;
9306;SDS011;4691;47.612;7.610;2023-03-02T13:14:56;95.18;;;48.72;;
9306;SDS011;4691;47.612;7.610;2023-03-02T13:17:31;99.55;;;49.05;;
9306;SDS011;4691;47.612;7.610;2023-03-02T13:19:57;97.18;;;46.85;;
9306;SDS011;4691;47.612;7.610;2023-03-02T13:22:24;96.53;;;46.35;;
9306;SDS011;4691;47.612;7.610;2023-03-02T13:24:59;94.32;;;46.33;;
9306;SDS011;4691;47.612;7.610;2023-03-02T13:27:27;99.80;;;46.42;;
9306;SDS011;4691;47.612;7.610;2023-03-02T13:29:53;96.15;;;45.33;;
9306;SDS011;4691;47.612;7.610;2023-03-02T13:32:22;89.32;;;44.63;;
9306;SDS011;4691;47.612;7.610;2023-03-02T13:34:53;86.68;;;42.38;;
9306;SDS011;4691;47.612;7.610;2023-03-02T13:37:31;98.03;;;45.60;;
9306;SDS011;4691;47.612;7.610;2023-03-02T13:42:37;90.30;;;43.85;;
9306;SDS011;4691;47.612;7.610;2023-03-02T13:45:09;83.30;;;42.30;;
9306;SDS011;4691;47.612;7.610;2023-03-02T13:47:45;83.63;;;42.78;;
9306;SDS011;4691;47.612;7.610;2023-03-02T13:50:25;79.15;;;40.38;;
9306;SDS011;4691;47.612;7.610;2023-03-02T13:52:59;83.70;;;43.58;;
9306;SDS011;4691;47.612;7.610;2023-03-02T13:55:29;81.90;;;44.22;;
9306;SDS011;4691;47.612;7.610;2023-03-02T13:57:55;80.32;;;44.60;;
9306;SDS011;4691;47.612;7.610;2023-03-02T14:00:22;80.95;;;42.35;;
9306;SDS011;4691;47.612;7.610;2023-03-02T14:02:56;73.95;;;42.20;;
9306;SDS011;4691;47.612;7.610;2023-03-02T14:05:23;82.13;;;43.08;;
9306;SDS011;4691;47.612;7.610;2023-03-02T14:07:56;75.65;;;40.50;;
9306;SDS011;4691;47.612;7.610;2023-03-02T14:10:22;76.60;;;41.80;;
9306;SDS011;4691;47.612;7.610;2023-03-02T14:12:57;75.65;;;40.67;;
9306;SDS011;4691;47.612;7.610;2023-03-02T14:15:29;81.10;;;41.90;;
9306;SDS011;4691;47.612;7.610;2023-03-02T14:17:54;70.78;;;39.47;;
9306;SDS011;4691;47.612;7.610;2023-03-02T14:20:19;74.47;;;40.88;;
9306;SDS011;4691;47.612;7.610;2023-03-02T14:22:45;77.60;;;41.20;;
9306;SDS011;4691;47.612;7.610;2023-03-02T14:25:12;80.63;;;43.85;;
9306;SDS011;4691;47.612;7.610;2023-03-02T14:27:38;73.45;;;40.22;;
9306;SDS011;4691;47.612;7.610;2023-03-02T14:30:15;74.15;;;40.30;;
9306;SDS011;4691;47.612;7.610;2023-03-02T14:32:43;74.47;;;40.60;;
9306;SDS011;4691;47.612;7.610;2023-03-02T14:35:12;74.03;;;38.97;;
9306;SDS011;4691;47.612;7.610;2023-03-02T14:37:46;74.20;;;41.83;;
9306;SDS011;4691;47.612;7.610;2023-03-02T14:40:13;80.15;;;43.42;;
9306;SDS011;4691;47.612;7.610;2023-03-02T14:42:45;75.28;;;39.20;;
9306;SDS011;4691;47.612;7.610;2023-03-02T14:45:10;79.07;;;42.63;;
9306;SDS011;4691;47.612;7.610;2023-03-02T14:47:36;82.63;;;42.58;;
9306;SDS011;4691;47.612;7.610;2023-03-02T14:50:01;82.90;;;40.72;;
9306;SDS011;4691;47.612;7.610;2023-03-02T14:52:33;77.68;;;42.15;;
9306;SDS011;4691;47.612;7.610;2023-03-02T14:55:04;76.38;;;40.63;;
9306;SDS011;4691;47.612;7.610;2023-03-02T14:57:34;80.43;;;42.60;;
9306;SDS011;4691;47.612;7.610;2023-03-02T15:00:02;74.60;;;41.50;;
9306;SDS011;4691;47.612;7.610;2023-03-02T15:02:28;76.78;;;39.63;;
9306;SDS011;4691;47.612;7.610;2023-03-02T15:04:55;69.63;;;39.70;;
9306;SDS011;4691;47.612;7.610;2023-03-02T15:07:21;76.93;;;41.30;;
9306;SDS011;4691;47.612;7.610;2023-03-02T15:09:46;79.68;;;42.42;;
9306;SDS011;4691;47.612;7.610;2023-03-02T15:12:12;82.68;;;43.10;;
9306;SDS011;4691;47.612;7.610;2023-03-02T15:14:37;78.38;;;41.78;;
9306;SDS011;4691;47.612;7.610;2023-03-02T15:17:03;86.00;;;42.85;;
9306;SDS011;4691;47.612;7.610;2023-03-02T15:19:29;79.32;;;41.00;;
9306;SDS011;4691;47.612;7.610;2023-03-02T15:21:55;73.30;;;39.78;;
9306;SDS011;4691;47.612;7.610;2023-03-02T15:24:20;82.30;;;44.80;;
9306;SDS011;4691;47.612;7.610;2023-03-02T15:26:47;80.10;;;42.35;;
9306;SDS011;4691;47.612;7.610;2023-03-02T15:29:17;77.03;;;39.45;;
9306;SDS011;4691;47.612;7.610;2023-03-02T15:31:45;77.28;;;40.17;;
9306;SDS011;4691;47.612;7.610;2023-03-02T15:34:11;83.78;;;41.60;;
9306;SDS011;4691;47.612;7.610;2023-03-02T15:36:37;75.88;;;38.95;;
9306;SDS011;4691;47.612;7.610;2023-03-02T15:39:03;79.55;;;40.92;;
9306;SDS011;4691;47.612;7.610;2023-03-02T15:41:28;83.00;;;42.03;;
9306;SDS011;4691;47.612;7.610;2023-03-02T15:43:55;85.82;;;42.67;;
9306;SDS011;4691;47.612;7.610;2023-03-02T15:46:20;86.25;;;42.35;;
9306;SDS011;4691;47.612;7.610;2023-03-02T15:48:47;81.95;;;40.03;;
9306;SDS011;4691;47.612;7.610;2023-03-02T15:51:13;89.00;;;44.28;;
9306;SDS011;4691;47.612;7.610;2023-03-02T15:53:39;89.22;;;43.90;;
9306;SDS011;4691;47.612;7.610;2023-03-02T15:56:08;90.10;;;42.15;;
9306;SDS011;4691;47.612;7.610;2023-03-02T15:58:35;86.00;;;43.33;;
9306;SDS011;4691;47.612;7.610;2023-03-02T16:01:08;87.05;;;43.30;;
9306;SDS011;4691;47.612;7.610;2023-03-02T16:03:37;100.22;;;44.53;;
9306;SDS011;4691;47.612;7.610;2023-03-02T16:06:03;93.05;;;43.83;;
9306;SDS011;4691;47.612;7.610;2023-03-02T16:08:29;102.45;;;45.72;;
9306;SDS011;4691;47.612;7.610;2023-03-02T16:10:55;96.75;;;43.40;;
9306;SDS011;4691;47.612;7.610;2023-03-02T16:13:21;97.35;;;44.47;;
9306;SDS011;4691;47.612;7.610;2023-03-02T16:15:47;96.38;;;42.28;;
9306;SDS011;4691;47.612;7.610;2023-03-02T16:18:12;103.00;;;43.90;;